sensor_id;sensor_type;location;lat;lon;timestamp;pressure;altitude;pressure_sealevel;temperature;humidity
81162;BME280;70638;-33.792;151.032;2023-09-30T00:01:18;101569.99;;;23.19;56.80
81162;BME280;70638;-33.792;151.032;2023-09-30T00:03:47;101559.45;;;23.26;57.75
81162;BME280;70638;-33.792;151.032;2023-09-30T00:06:18;101557.06;;;23.42;55.33
81162;BME280;70638;-33.792;151.032;2023-09-30T00:08:48;101548.36;;;23.38;55.16
81162;BME280;70638;-33.792;151.032;2023-09-30T00:11:20;101542.78;;;23.50;56.35
81162;BME280;70638;-33.792;151.032;2023-09-30T00:13:51;101540.55;;;23.55;56.37
81162;BME280;70638;-33.792;151.032;2023-09-30T00:16:22;101540.80;;;23.61;57.11
81162;BME280;70638;-33.792;151.032;2023-09-30T00:18:50;101534.80;;;23.66;55.05
81162;BME280;70638;-33.792;151.032;2023-09-30T00:21:20;101526.88;;;23.71;57.43
81162;BME280;70638;-33.792;151.032;2023-09-30T00:23:51;101518.32;;;23.76;57.89
81162;BME280;70638;-33.792;151.032;2023-09-30T00:26:21;101515.66;;;23.82;58.05
81162;BME280;70638;-33.792;151.032;2023-09-30T00:28:52;101504.01;;;23.63;55.06
81162;BME280;70638;-33.792;151.032;2023-09-30T00:31:22;101497.08;;;23.73;54.77
81162;BME280;70638;-33.792;151.032;2023-09-30T00:33:53;101487.45;;;23.97;54.85
81162;BME280;70638;-33.792;151.032;2023-09-30T00:36:24;101482.61;;;24.13;55.10
81162;BME280;70638;-33.792;151.032;2023-09-30T00:38:55;101477.17;;;24.20;52.38
81162;BME280;70638;-33.792;151.032;2023-09-30T00:41:25;101474.56;;;24.17;54.38
81162;BME280;70638;-33.792;151.032;2023-09-30T00:43:56;101471.56;;;24.25;53.51
81162;BME280;70638;-33.792;151.032;2023-09-30T00:46:29;101464.34;;;24.17;52.00
81162;BME280;70638;-33.792;151.032;2023-09-30T00:48:58;101453.75;;;24.27;54.68
81162;BME280;70638;-33.792;151.032;2023-09-30T00:51:29;101447.72;;;24.18;53.67
81162;BME280;70638;-33.792;151.032;2023-09-30T00:54:00;101436.91;;;24.14;54.56
81162;BME280;70638;-33.792;151.032;2023-09-30T00:56:30;101432.24;;;24.43;54.94
81162;BME280;70638;-33.792;151.032;2023-09-30T00:59:00;101422.49;;;24.63;54.59
81162;BME280;70638;-33.792;151.032;2023-09-30T01:01:30;101416.85;;;24.56;50.95
81162;BME280;70638;-33.792;151.032;2023-09-30T01:04:01;101412.29;;;24.61;51.45
81162;BME280;70638;-33.792;151.032;2023-09-30T01:06:32;101411.11;;;24.49;51.42
81162;BME280;70638;-33.792;151.032;2023-09-30T01:09:02;101403.15;;;24.55;54.03
81162;BME280;70638;-33.792;151.032;2023-09-30T01:11:32;101401.34;;;24.63;51.24
81162;BME280;70638;-33.792;151.032;2023-09-30T01:14:03;101396.30;;;24.83;54.03
81162;BME280;70638;-33.792;151.032;2023-09-30T01:16:34;101393.12;;;24.90;52.04
81162;BME280;70638;-33.792;151.032;2023-09-30T01:19:05;101389.69;;;24.94;52.14
81162;BME280;70638;-33.792;151.032;2023-09-30T01:21:34;101384.77;;;24.98;50.19
81162;BME280;70638;-33.792;151.032;2023-09-30T01:24:05;101381.11;;;25.16;52.12
81162;BME280;70638;-33.792;151.032;2023-09-30T01:26:37;101373.38;;;25.09;50.96
81162;BME280;70638;-33.792;151.032;2023-09-30T01:29:06;101369.42;;;25.10;51.87
81162;BME280;70638;-33.792;151.032;2023-09-30T01:31:38;101361.58;;;25.15;51.89
81162;BME280;70638;-33.792;151.032;2023-09-30T01:34:08;101350.50;;;25.18;50.40
81162;BME280;70638;-33.792;151.032;2023-09-30T01:36:39;101347.31;;;25.47;50.03
81162;BME280;70638;-33.792;151.032;2023-09-30T01:39:13;101342.77;;;25.56;49.26
81162;BME280;70638;-33.792;151.032;2023-09-30T01:41:40;101344.66;;;25.65;49.11
81162;BME280;70638;-33.792;151.032;2023-09-30T01:44:11;101333.30;;;25.65;51.33
81162;BME280;70638;-33.792;151.032;2023-09-30T01:46:40;101326.64;;;25.66;48.08
81162;BME280;70638;-33.792;151.032;2023-09-30T01:49:11;101325.64;;;25.64;50.57
81162;BME280;70638;-33.792;151.032;2023-09-30T01:51:42;101314.99;;;25.63;51.14
81162;BME280;70638;-33.792;151.032;2023-09-30T01:54:12;101310.20;;;25.52;47.28
81162;BME280;70638;-33.792;151.032;2023-09-30T01:56:43;101302.28;;;25.56;50.36
81162;BME280;70638;-33.792;151.032;2023-09-30T01:59:14;101301.00;;;25.83;50.08
81162;BME280;70638;-33.792;151.032;2023-09-30T02:01:44;101294.98;;;25.99;47.47
81162;BME280;70638;-33.792;151.032;2023-09-30T02:04:18;101289.38;;;26.01;48.54
81162;BME280;70638;-33.792;151.032;2023-09-30T02:06:46;101281.62;;;25.98;47.99
81162;BME280;70638;-33.792;151.032;2023-09-30T02:09:16;101278.83;;;25.99;49.83
81162;BME280;70638;-33.792;151.032;2023-09-30T02:11:47;101272.02;;;25.60;47.16
81162;BME280;70638;-33.792;151.032;2023-09-30T02:14:18;101269.66;;;25.64;49.62
81162;BME280;70638;-33.792;151.032;2023-09-30T02:16:48;101263.35;;;25.98;47.97
81162;BME280;70638;-33.792;151.032;2023-09-30T02:19:24;101258.67;;;26.16;47.66
81162;BME280;70638;-33.792;151.032;2023-09-30T02:21:50;101248.38;;;26.06;47.69
81162;BME280;70638;-33.792;151.032;2023-09-30T02:24:20;101244.56;;;26.15;48.16
81162;BME280;70638;-33.792;151.032;2023-09-30T02:26:51;101237.13;;;26.10;46.83
81162;BME280;70638;-33.792;151.032;2023-09-30T02:29:22;101229.68;;;26.19;48.23
81162;BME280;70638;-33.792;151.032;2023-09-30T02:31:52;101222.48;;;26.29;46.31
81162;BME280;70638;-33.792;151.032;2023-09-30T02:34:22;101219.73;;;26.66;48.71
81162;BME280;70638;-33.792;151.032;2023-09-30T02:36:53;101211.84;;;26.52;46.37
81162;BME280;70638;-33.792;151.032;2023-09-30T02:39:23;101207.28;;;26.48;48.04
81162;BME280;70638;-33.792;151.032;2023-09-30T02:41:55;101203.14;;;26.61;45.47
81162;BME280;70638;-33.792;151.032;2023-09-30T02:44:24;101198.04;;;26.67;47.84
81162;BME280;70638;-33.792;151.032;2023-09-30T02:46:55;101191.53;;;26.76;47.15
81162;BME280;70638;-33.792;151.032;2023-09-30T02:49:25;101186.74;;;26.82;45.11
81162;BME280;70638;-33.792;151.032;2023-09-30T02:51:56;101184.47;;;26.97;44.97
81162;BME280;70638;-33.792;151.032;2023-09-30T02:54:26;101173.55;;;26.89;43.39
81162;BME280;70638;-33.792;151.032;2023-09-30T02:56:57;101161.80;;;26.77;43.01
81162;BME280;70638;-33.792;151.032;2023-09-30T02:59:27;101154.97;;;26.94;44.28
81162;BME280;70638;-33.792;151.032;2023-09-30T03:01:58;101145.78;;;27.05;43.58
81162;BME280;70638;-33.792;151.032;2023-09-30T03:04:31;101143.72;;;27.05;43.79
81162;BME280;70638;-33.792;151.032;2023-09-30T03:07:00;101141.42;;;27.18;42.46
81162;BME280;70638;-33.792;151.032;2023-09-30T03:09:31;101135.88;;;27.24;42.34
81162;BME280;70638;-33.792;151.032;2023-09-30T03:12:02;101134.42;;;27.21;42.83
81162;BME280;70638;-33.792;151.032;2023-09-30T03:14:33;101125.59;;;27.26;40.69
81162;BME280;70638;-33.792;151.032;2023-09-30T03:17:01;101114.01;;;27.36;37.43
81162;BME280;70638;-33.792;151.032;2023-09-30T03:19:32;101107.09;;;27.33;37.46
81162;BME280;70638;-33.792;151.032;2023-09-30T03:22:06;101104.58;;;27.47;41.70
81162;BME280;70638;-33.792;151.032;2023-09-30T03:24:33;101101.68;;;27.61;41.98
81162;BME280;70638;-33.792;151.032;2023-09-30T03:27:04;101091.77;;;27.58;40.00
81162;BME280;70638;-33.792;151.032;2023-09-30T03:29:36;101084.69;;;27.52;38.05
81162;BME280;70638;-33.792;151.032;2023-09-30T03:32:06;101076.45;;;27.49;36.81
81162;BME280;70638;-33.792;151.032;2023-09-30T03:34:39;101072.70;;;27.45;40.03
81162;BME280;70638;-33.792;151.032;2023-09-30T03:37:09;101065.50;;;27.35;37.78
81162;BME280;70638;-33.792;151.032;2023-09-30T03:39:37;101059.98;;;27.24;38.38
81162;BME280;70638;-33.792;151.032;2023-09-30T03:42:07;101055.02;;;27.31;40.11
81162;BME280;70638;-33.792;151.032;2023-09-30T03:44:38;101053.62;;;27.45;40.55
81162;BME280;70638;-33.792;151.032;2023-09-30T03:47:10;101049.22;;;27.60;40.60
81162;BME280;70638;-33.792;151.032;2023-09-30T03:49:41;101041.30;;;27.65;37.97
81162;BME280;70638;-33.792;151.032;2023-09-30T03:52:11;101035.77;;;27.55;40.57
81162;BME280;70638;-33.792;151.032;2023-09-30T03:54:40;101030.09;;;27.54;39.52
81162;BME280;70638;-33.792;151.032;2023-09-30T03:57:11;101024.56;;;27.61;37.95
81162;BME280;70638;-33.792;151.032;2023-09-30T03:59:41;101019.40;;;27.45;37.23
81162;BME280;70638;-33.792;151.032;2023-09-30T04:02:12;101015.80;;;27.60;39.39
81162;BME280;70638;-33.792;151.032;2023-09-30T04:04:43;101013.59;;;27.79;32.27
81162;BME280;70638;-33.792;151.032;2023-09-30T04:07:13;101008.86;;;28.12;33.08
81162;BME280;70638;-33.792;151.032;2023-09-30T04:09:44;101006.80;;;28.43;35.64
81162;BME280;70638;-33.792;151.032;2023-09-30T04:12:15;100998.99;;;28.30;32.70
81162;BME280;70638;-33.792;151.032;2023-09-30T04:14:46;100997.58;;;28.11;34.19
81162;BME280;70638;-33.792;151.032;2023-09-30T04:17:16;100992.88;;;28.08;35.20
81162;BME280;70638;-33.792;151.032;2023-09-30T04:19:48;100984.59;;;28.09;32.65
81162;BME280;70638;-33.792;151.032;2023-09-30T04:22:19;100982.97;;;28.09;35.52
81162;BME280;70638;-33.792;151.032;2023-09-30T04:24:48;100974.38;;;28.17;30.46
81162;BME280;70638;-33.792;151.032;2023-09-30T04:27:19;100971.62;;;28.00;33.14
81162;BME280;70638;-33.792;151.032;2023-09-30T04:29:50;100972.70;;;28.00;34.58
81162;BME280;70638;-33.792;151.032;2023-09-30T04:32:19;100963.34;;;28.17;30.20
81162;BME280;70638;-33.792;151.032;2023-09-30T04:34:50;100957.86;;;28.26;30.63
81162;BME280;70638;-33.792;151.032;2023-09-30T04:37:21;100947.80;;;28.46;30.11
81162;BME280;70638;-33.792;151.032;2023-09-30T04:39:51;100946.78;;;28.47;39.87
81162;BME280;70638;-33.792;151.032;2023-09-30T04:42:22;100945.53;;;28.21;34.98
81162;BME280;70638;-33.792;151.032;2023-09-30T04:44:53;100951.16;;;28.26;32.96
81162;BME280;70638;-33.792;151.032;2023-09-30T04:47:23;100941.17;;;28.38;40.27
81162;BME280;70638;-33.792;151.032;2023-09-30T04:49:54;100939.20;;;28.13;44.72
81162;BME280;70638;-33.792;151.032;2023-09-30T04:52:23;100929.62;;;27.90;44.58
81162;BME280;70638;-33.792;151.032;2023-09-30T04:54:54;100923.74;;;27.90;42.86
81162;BME280;70638;-33.792;151.032;2023-09-30T04:57:25;100929.09;;;28.13;38.23
81162;BME280;70638;-33.792;151.032;2023-09-30T04:59:55;100930.01;;;28.14;44.87
81162;BME280;70638;-33.792;151.032;2023-09-30T05:02:26;100924.77;;;27.86;45.62
81162;BME280;70638;-33.792;151.032;2023-09-30T05:04:56;100933.25;;;27.93;46.30
81162;BME280;70638;-33.792;151.032;2023-09-30T05:07:27;100930.80;;;27.91;46.29
81162;BME280;70638;-33.792;151.032;2023-09-30T05:09:57;100932.74;;;27.75;46.57
81162;BME280;70638;-33.792;151.032;2023-09-30T05:12:31;100928.83;;;27.57;47.48
81162;BME280;70638;-33.792;151.032;2023-09-30T05:14:59;100921.56;;;27.53;47.31
81162;BME280;70638;-33.792;151.032;2023-09-30T05:17:30;100917.41;;;27.39;48.10
81162;BME280;70638;-33.792;151.032;2023-09-30T05:20:00;100910.23;;;27.33;49.82
81162;BME280;70638;-33.792;151.032;2023-09-30T05:22:32;100913.30;;;27.44;47.94
81162;BME280;70638;-33.792;151.032;2023-09-30T05:25:02;100912.09;;;27.30;49.54
81162;BME280;70638;-33.792;151.032;2023-09-30T05:27:31;100900.44;;;27.32;49.68
81162;BME280;70638;-33.792;151.032;2023-09-30T05:30:02;100908.14;;;27.22;50.20
81162;BME280;70638;-33.792;151.032;2023-09-30T05:32:33;100907.73;;;27.17;49.86
81162;BME280;70638;-33.792;151.032;2023-09-30T05:35:05;100899.80;;;27.07;51.42
81162;BME280;70638;-33.792;151.032;2023-09-30T05:37:33;100898.40;;;27.06;51.46
81162;BME280;70638;-33.792;151.032;2023-09-30T05:40:06;100895.40;;;26.96;51.86
81162;BME280;70638;-33.792;151.032;2023-09-30T05:42:34;100893.58;;;27.07;51.09
81162;BME280;70638;-33.792;151.032;2023-09-30T05:45:04;100893.41;;;27.23;49.82
81162;BME280;70638;-33.792;151.032;2023-09-30T05:47:34;100889.98;;;27.30;49.79
81162;BME280;70638;-33.792;151.032;2023-09-30T05:50:10;100893.88;;;27.26;49.15
81162;BME280;70638;-33.792;151.032;2023-09-30T05:52:36;100896.02;;;27.26;49.80
81162;BME280;70638;-33.792;151.032;2023-09-30T05:55:06;100891.53;;;27.09;50.85
81162;BME280;70638;-33.792;151.032;2023-09-30T05:57:36;100895.17;;;27.04;49.88
81162;BME280;70638;-33.792;151.032;2023-09-30T06:00:23;100895.28;;;26.93;49.70
81162;BME280;70638;-33.792;151.032;2023-09-30T06:02:37;100900.80;;;26.76;52.01
81162;BME280;70638;-33.792;151.032;2023-09-30T06:05:06;100897.11;;;26.48;53.58
81162;BME280;70638;-33.792;151.032;2023-09-30T06:07:36;100890.50;;;26.38;53.52
81162;BME280;70638;-33.792;151.032;2023-09-30T06:10:10;100887.99;;;26.40;52.55
81162;BME280;70638;-33.792;151.032;2023-09-30T06:12:38;100891.13;;;26.28;53.65
81162;BME280;70638;-33.792;151.032;2023-09-30T06:15:09;100899.33;;;26.26;53.67
81162;BME280;70638;-33.792;151.032;2023-09-30T06:17:39;100893.62;;;26.12;54.23
81162;BME280;70638;-33.792;151.032;2023-09-30T06:20:21;100894.99;;;25.99;54.81
81162;BME280;70638;-33.792;151.032;2023-09-30T06:22:40;100892.56;;;25.94;53.71
81162;BME280;70638;-33.792;151.032;2023-09-30T06:25:13;100892.05;;;25.94;53.51
81162;BME280;70638;-33.792;151.032;2023-09-30T06:27:41;100895.60;;;25.89;55.00
81162;BME280;70638;-33.792;151.032;2023-09-30T06:30:12;100896.53;;;25.69;55.84
81162;BME280;70638;-33.792;151.032;2023-09-30T06:32:42;100898.70;;;25.51;56.96
81162;BME280;70638;-33.792;151.032;2023-09-30T06:35:15;100891.42;;;25.42;58.27
81162;BME280;70638;-33.792;151.032;2023-09-30T06:37:43;100900.44;;;25.35;58.51
81162;BME280;70638;-33.792;151.032;2023-09-30T06:40:17;100900.05;;;25.32;59.20
81162;BME280;70638;-33.792;151.032;2023-09-30T06:42:45;100899.29;;;25.33;57.95
81162;BME280;70638;-33.792;151.032;2023-09-30T06:45:15;100896.44;;;25.24;58.77
81162;BME280;70638;-33.792;151.032;2023-09-30T06:47:45;100893.88;;;25.06;60.39
81162;BME280;70638;-33.792;151.032;2023-09-30T06:50:19;100894.62;;;24.98;58.83
81162;BME280;70638;-33.792;151.032;2023-09-30T06:52:48;100889.02;;;24.86;59.26
81162;BME280;70638;-33.792;151.032;2023-09-30T06:55:18;100891.56;;;24.90;59.45
81162;BME280;70638;-33.792;151.032;2023-09-30T06:57:48;100892.18;;;24.70;60.54
81162;BME280;70638;-33.792;151.032;2023-09-30T07:00:18;100890.13;;;24.61;61.27
81162;BME280;70638;-33.792;151.032;2023-09-30T07:02:49;100892.31;;;24.54;60.86
81162;BME280;70638;-33.792;151.032;2023-09-30T07:05:20;100893.27;;;24.41;60.23
81162;BME280;70638;-33.792;151.032;2023-09-30T07:07:49;100896.46;;;24.32;59.64
81162;BME280;70638;-33.792;151.032;2023-09-30T07:10:20;100898.90;;;24.21;61.20
81162;BME280;70638;-33.792;151.032;2023-09-30T07:12:51;100899.74;;;24.20;61.44
81162;BME280;70638;-33.792;151.032;2023-09-30T07:15:22;100898.02;;;24.13;60.85
81162;BME280;70638;-33.792;151.032;2023-09-30T07:17:53;100901.67;;;24.05;60.04
81162;BME280;70638;-33.792;151.032;2023-09-30T07:20:25;100899.32;;;23.98;60.82
81162;BME280;70638;-33.792;151.032;2023-09-30T07:22:54;100902.58;;;23.85;62.24
81162;BME280;70638;-33.792;151.032;2023-09-30T07:25:24;100897.42;;;23.76;61.77
81162;BME280;70638;-33.792;151.032;2023-09-30T07:27:55;100901.91;;;23.67;62.43
81162;BME280;70638;-33.792;151.032;2023-09-30T07:30:25;100900.19;;;23.57;63.01
81162;BME280;70638;-33.792;151.032;2023-09-30T07:32:56;100892.67;;;23.50;63.95
81162;BME280;70638;-33.792;151.032;2023-09-30T07:35:27;100896.81;;;23.42;63.55
81162;BME280;70638;-33.792;151.032;2023-09-30T07:37:57;100898.16;;;23.33;64.12
81162;BME280;70638;-33.792;151.032;2023-09-30T07:40:28;100902.92;;;23.28;64.72
81162;BME280;70638;-33.792;151.032;2023-09-30T07:42:58;100899.00;;;23.20;65.02
81162;BME280;70638;-33.792;151.032;2023-09-30T07:45:30;100905.70;;;23.05;66.37
81162;BME280;70638;-33.792;151.032;2023-09-30T07:48:01;100904.86;;;22.89;66.37
81162;BME280;70638;-33.792;151.032;2023-09-30T07:50:29;100903.16;;;22.70;67.99
81162;BME280;70638;-33.792;151.032;2023-09-30T07:53:02;100902.80;;;22.59;68.16
81162;BME280;70638;-33.792;151.032;2023-09-30T07:55:30;100906.84;;;22.49;67.97
81162;BME280;70638;-33.792;151.032;2023-09-30T07:58:03;100906.33;;;22.49;68.08
81162;BME280;70638;-33.792;151.032;2023-09-30T08:00:32;100910.19;;;22.45;67.55
81162;BME280;70638;-33.792;151.032;2023-09-30T08:03:03;100910.48;;;22.31;68.58
81162;BME280;70638;-33.792;151.032;2023-09-30T08:05:33;100907.42;;;22.42;67.71
81162;BME280;70638;-33.792;151.032;2023-09-30T08:08:04;100911.41;;;22.23;68.00
81162;BME280;70638;-33.792;151.032;2023-09-30T08:10:35;100912.66;;;22.15;67.98
81162;BME280;70638;-33.792;151.032;2023-09-30T08:13:05;100913.78;;;22.05;68.93
81162;BME280;70638;-33.792;151.032;2023-09-30T08:15:35;100912.58;;;22.11;68.05
81162;BME280;70638;-33.792;151.032;2023-09-30T08:18:10;100917.06;;;22.00;68.46
81162;BME280;70638;-33.792;151.032;2023-09-30T08:20:36;100916.48;;;22.00;67.50
81162;BME280;70638;-33.792;151.032;2023-09-30T08:23:06;100919.53;;;21.96;68.99
81162;BME280;70638;-33.792;151.032;2023-09-30T08:25:36;100925.91;;;21.95;68.17
81162;BME280;70638;-33.792;151.032;2023-09-30T08:28:07;100927.89;;;21.98;67.31
81162;BME280;70638;-33.792;151.032;2023-09-30T08:30:38;100927.77;;;21.82;68.33
81162;BME280;70638;-33.792;151.032;2023-09-30T08:33:09;100929.67;;;21.75;68.44
81162;BME280;70638;-33.792;151.032;2023-09-30T08:35:39;100931.39;;;21.66;68.30
81162;BME280;70638;-33.792;151.032;2023-09-30T08:38:09;100929.28;;;21.53;68.41
81162;BME280;70638;-33.792;151.032;2023-09-30T08:40:40;100933.12;;;21.44;68.80
81162;BME280;70638;-33.792;151.032;2023-09-30T08:43:11;100930.97;;;21.45;67.38
81162;BME280;70638;-33.792;151.032;2023-09-30T08:45:44;100933.13;;;21.43;66.49
81162;BME280;70638;-33.792;151.032;2023-09-30T08:48:10;100936.38;;;21.43;64.63
81162;BME280;70638;-33.792;151.032;2023-09-30T08:50:44;100934.67;;;21.43;65.91
81162;BME280;70638;-33.792;151.032;2023-09-30T08:53:11;100939.80;;;21.49;63.76
81162;BME280;70638;-33.792;151.032;2023-09-30T08:55:42;100938.23;;;21.45;63.70
81162;BME280;70638;-33.792;151.032;2023-09-30T08:58:13;100939.58;;;21.52;63.04
81162;BME280;70638;-33.792;151.032;2023-09-30T09:00:43;100940.00;;;21.67;61.67
81162;BME280;70638;-33.792;151.032;2023-09-30T09:03:13;100947.94;;;21.58;62.79
81162;BME280;70638;-33.792;151.032;2023-09-30T09:05:44;100949.25;;;21.51;63.24
81162;BME280;70638;-33.792;151.032;2023-09-30T09:08:14;100951.41;;;21.40;64.70
81162;BME280;70638;-33.792;151.032;2023-09-30T09:11:00;100953.38;;;21.37;64.04
81162;BME280;70638;-33.792;151.032;2023-09-30T09:13:15;100950.96;;;21.29;64.24
81162;BME280;70638;-33.792;151.032;2023-09-30T09:15:46;100956.43;;;21.22;62.88
81162;BME280;70638;-33.792;151.032;2023-09-30T09:18:31;100960.03;;;21.16;63.33
81162;BME280;70638;-33.792;151.032;2023-09-30T09:20:47;100957.05;;;21.27;62.67
81162;BME280;70638;-33.792;151.032;2023-09-30T09:23:18;100959.53;;;21.40;61.35
81162;BME280;70638;-33.792;151.032;2023-09-30T09:25:50;100957.07;;;21.37;60.31
81162;BME280;70638;-33.792;151.032;2023-09-30T09:28:19;100958.16;;;21.28;61.29
81162;BME280;70638;-33.792;151.032;2023-09-30T09:30:49;100960.20;;;21.33;59.63
81162;BME280;70638;-33.792;151.032;2023-09-30T09:33:20;100962.09;;;21.32;58.21
81162;BME280;70638;-33.792;151.032;2023-09-30T09:35:50;100966.83;;;21.39;57.18
81162;BME280;70638;-33.792;151.032;2023-09-30T09:38:20;100964.09;;;21.44;56.28
81162;BME280;70638;-33.792;151.032;2023-09-30T09:40:51;100965.44;;;21.46;56.87
81162;BME280;70638;-33.792;151.032;2023-09-30T09:43:22;100969.78;;;21.40;56.78
81162;BME280;70638;-33.792;151.032;2023-09-30T09:45:55;100971.70;;;21.50;54.73
81162;BME280;70638;-33.792;151.032;2023-09-30T09:48:24;100970.84;;;21.50;55.72
81162;BME280;70638;-33.792;151.032;2023-09-30T09:50:54;100975.44;;;21.41;54.70
81162;BME280;70638;-33.792;151.032;2023-09-30T09:53:25;100979.37;;;21.40;53.83
81162;BME280;70638;-33.792;151.032;2023-09-30T09:55:56;100982.30;;;21.39;53.68
81162;BME280;70638;-33.792;151.032;2023-09-30T09:58:27;100984.37;;;21.38;54.54
81162;BME280;70638;-33.792;151.032;2023-09-30T10:00:56;100986.88;;;21.33;55.28
81162;BME280;70638;-33.792;151.032;2023-09-30T10:03:26;100991.65;;;21.39;53.84
81162;BME280;70638;-33.792;151.032;2023-09-30T10:05:57;100999.59;;;21.35;53.91
81162;BME280;70638;-33.792;151.032;2023-09-30T10:08:33;100999.03;;;21.29;53.21
81162;BME280;70638;-33.792;151.032;2023-09-30T10:11:02;100994.30;;;21.29;52.39
81162;BME280;70638;-33.792;151.032;2023-09-30T10:13:58;101000.33;;;21.34;52.51
81162;BME280;70638;-33.792;151.032;2023-09-30T10:15:59;100998.65;;;21.38;53.47
81162;BME280;70638;-33.792;151.032;2023-09-30T10:18:30;101002.56;;;21.28;53.08
81162;BME280;70638;-33.792;151.032;2023-09-30T10:21:10;101004.15;;;21.18;52.55
81162;BME280;70638;-33.792;151.032;2023-09-30T10:23:34;101010.42;;;21.42;49.75
81162;BME280;70638;-33.792;151.032;2023-09-30T10:26:15;101018.29;;;21.42;50.33
81162;BME280;70638;-33.792;151.032;2023-09-30T10:28:41;101028.61;;;21.43;50.89
81162;BME280;70638;-33.792;151.032;2023-09-30T10:31:17;101025.77;;;21.39;51.45
81162;BME280;70638;-33.792;151.032;2023-09-30T10:33:32;101029.47;;;20.98;53.45
81162;BME280;70638;-33.792;151.032;2023-09-30T10:36:03;101036.21;;;20.64;55.70
81162;BME280;70638;-33.792;151.032;2023-09-30T10:38:39;101033.90;;;20.38;56.00
81162;BME280;70638;-33.792;151.032;2023-09-30T10:41:06;101017.70;;;20.19;57.24
81162;BME280;70638;-33.792;151.032;2023-09-30T10:43:35;101012.84;;;20.61;55.05
81162;BME280;70638;-33.792;151.032;2023-09-30T10:46:31;101009.72;;;20.38;55.61
81162;BME280;70638;-33.792;151.032;2023-09-30T10:48:37;101016.58;;;20.20;57.27
81162;BME280;70638;-33.792;151.032;2023-09-30T10:51:16;101013.27;;;20.01;58.92
81162;BME280;70638;-33.792;151.032;2023-09-30T10:53:45;101011.57;;;19.90;57.29
81162;BME280;70638;-33.792;151.032;2023-09-30T10:56:09;101017.17;;;19.82;57.88
81162;BME280;70638;-33.792;151.032;2023-09-30T10:58:48;101015.74;;;19.70;57.41
81162;BME280;70638;-33.792;151.032;2023-09-30T11:01:09;101021.15;;;19.66;58.61
81162;BME280;70638;-33.792;151.032;2023-09-30T11:03:39;101008.72;;;19.60;58.80
81162;BME280;70638;-33.792;151.032;2023-09-30T11:06:15;101009.34;;;19.45;62.54
81162;BME280;70638;-33.792;151.032;2023-09-30T11:08:45;101015.41;;;19.31;62.15
81162;BME280;70638;-33.792;151.032;2023-09-30T11:11:11;101014.67;;;19.10;62.77
81162;BME280;70638;-33.792;151.032;2023-09-30T11:13:42;101014.14;;;18.97;62.42
81162;BME280;70638;-33.792;151.032;2023-09-30T11:16:12;101008.15;;;18.86;64.19
81162;BME280;70638;-33.792;151.032;2023-09-30T11:18:43;101006.12;;;18.71;64.18
81162;BME280;70638;-33.792;151.032;2023-09-30T11:21:14;101008.07;;;18.54;64.54
81162;BME280;70638;-33.792;151.032;2023-09-30T11:23:44;100995.84;;;18.50;64.36
81162;BME280;70638;-33.792;151.032;2023-09-30T11:26:28;100991.31;;;18.48;66.24
81162;BME280;70638;-33.792;151.032;2023-09-30T11:28:45;100994.03;;;18.46;65.10
81162;BME280;70638;-33.792;151.032;2023-09-30T11:31:18;101000.10;;;18.40;64.65
81162;BME280;70638;-33.792;151.032;2023-09-30T11:33:53;100991.98;;;18.53;63.76
81162;BME280;70638;-33.792;151.032;2023-09-30T11:36:18;101004.85;;;18.46;64.99
81162;BME280;70638;-33.792;151.032;2023-09-30T11:38:47;101000.17;;;18.44;63.16
81162;BME280;70638;-33.792;151.032;2023-09-30T11:41:17;101004.09;;;18.50;64.28
81162;BME280;70638;-33.792;151.032;2023-09-30T11:44:08;100993.12;;;18.43;64.49
81162;BME280;70638;-33.792;151.032;2023-09-30T11:46:18;100985.58;;;18.29;64.37
81162;BME280;70638;-33.792;151.032;2023-09-30T11:48:59;100985.33;;;18.25;66.70
81162;BME280;70638;-33.792;151.032;2023-09-30T11:51:19;100982.15;;;18.05;67.88
81162;BME280;70638;-33.792;151.032;2023-09-30T11:53:49;100981.89;;;17.91;67.26
81162;BME280;70638;-33.792;151.032;2023-09-30T11:56:19;100976.22;;;17.86;68.38
81162;BME280;70638;-33.792;151.032;2023-09-30T11:58:52;100976.11;;;17.72;69.14
81162;BME280;70638;-33.792;151.032;2023-09-30T12:01:21;100981.53;;;17.64;70.03
81162;BME280;70638;-33.792;151.032;2023-09-30T12:03:51;100982.31;;;17.60;68.38
81162;BME280;70638;-33.792;151.032;2023-09-30T12:06:22;100994.64;;;17.63;69.55
81162;BME280;70638;-33.792;151.032;2023-09-30T12:08:54;100982.72;;;17.64;67.88
81162;BME280;70638;-33.792;151.032;2023-09-30T12:11:24;100979.75;;;17.66;68.49
81162;BME280;70638;-33.792;151.032;2023-09-30T12:13:54;100975.60;;;17.62;70.44
81162;BME280;70638;-33.792;151.032;2023-09-30T12:16:25;100965.47;;;17.58;68.90
81162;BME280;70638;-33.792;151.032;2023-09-30T12:18:55;100975.25;;;17.52;70.66
81162;BME280;70638;-33.792;151.032;2023-09-30T12:21:26;100974.47;;;17.48;68.88
81162;BME280;70638;-33.792;151.032;2023-09-30T12:23:56;100972.69;;;17.47;68.76
81162;BME280;70638;-33.792;151.032;2023-09-30T12:26:26;100971.09;;;17.49;70.28
81162;BME280;70638;-33.792;151.032;2023-09-30T12:28:56;100976.68;;;17.42;70.03
81162;BME280;70638;-33.792;151.032;2023-09-30T12:31:26;100971.34;;;17.43;69.52
81162;BME280;70638;-33.792;151.032;2023-09-30T12:33:57;100955.86;;;17.45;69.46
81162;BME280;70638;-33.792;151.032;2023-09-30T12:36:28;100956.80;;;17.39;70.91